Candiota, Brazil
Current Conditions -  °F | °C
As of 10:00 PM on Friday 21 Nov 2014 (Local Time) from SBPK Reporting Station
Thunderstorm Thunderstorm  
Wind Chill: 72°   Ceiling: Unl
Heat Index: 72°   Visibility: 6mi
Dew Point: 72°   Wind: 23mph
Humidity: 100%   Direction: 50°NE
Pressure: 29.71"   Gusts: NA
Location:  31.56°S, 53.67°W
Report Text: SBPK 220000Z 05020KT 9999 VCTS SCT010 FEW050CB 22/22 Q1006
Loading
Personal Weather Stations






























Interactive Weather Map New forecast layout! Learn more

10-Day Weather Forecast

Advertisements
Track Severe Weather on mobile